Latest Coastal Weather Observations for Flinders Island Airport

IDT60701

Issued at 10:12 pm EDT Friday 23 October 2020 (issued every 10 minutes, with the page automatically refreshed every 10 minutes)

About coastal observations | Map of coastal stations | Coastal observations for TAS | Marine services | Other Formats
Station Details ID: 099005 Name: FLINDERS ISLAND AIRPORT Lat: -40.09 Lon: 148.00 Height: 9.0 m
Data from the previous 72 hours. | See also: Recent months at Flinders Island Airport
Date/Time
EDT
Wind Sea
Height
m
Swell Vis
km
Cloud Weather Temp
°C
Press
MSL
hPa
Rain since
9am
mm
Dir  Spd
kts
Gust
kts
Height
m
Period
s
Dir
23/10:00pm SE 4 5 - - - - 10 Cloudy - 15.1 1005.4 0.0
23/09:30pm E 5 8 - - - - 10 Partly cloudy - 15.3 1005.7 0.0
23/09:00pm NE 17 21 - - - - 10 Cloudy - 15.3 1006.1 0.0
23/08:30pm E 8 13 - - - - 10 Cloudy - 15.2 1006.1 0.0
23/08:00pm NE 10 13 - - - - 10 Partly cloudy - 15.6 1005.9 0.0
23/07:30pm NE 9 11 - - - - 10 Cloudy - 15.6 1005.6 0.0
23/07:00pm ENE 11 15 - - - - 10 Partly cloudy - 15.9 1005.3 0.0
23/06:30pm NE 8 10 - - - - 10 Partly cloudy - 16.5 1005.6 0.0
23/06:00pm E 8 13 - - - - 10 Cloudy - 17.4 1005.7 0.0
23/05:30pm ENE 7 8 - - - - 10 Partly cloudy - 17.8 1006.0 0.0
23/05:00pm ENE 6 8 - - - - 10 Partly cloudy - 18.2 1006.6 0.0
23/04:30pm NE 6 8 - - - - 10 Partly cloudy - 18.6 1006.6 0.0
23/04:00pm NE 3 6 - - - - 10 Partly cloudy - 18.4 1007.0 0.0
23/03:40pm E 5 8 - - - - 10 Partly cloudy - 18.8 1007.2 0.0
23/03:30pm S 5 7 - - - - 10 Partly cloudy - 18.6 1007.5 0.0
23/03:00pm SSE 5 6 - - - - 10 Cloudy - 17.8 1008.0 0.0
23/02:30pm SSW 8 9 - - - - 10 Partly cloudy - 17.6 1008.3 0.0
23/02:00pm SE 4 6 - - - - 10 Partly cloudy - 17.1 1008.6 0.0
23/01:30pm S 5 7 - - - - 10 Cloudy - 16.8 1008.6 0.0
23/01:00pm SSW 5 6 - - - - 10 Cloudy - 16.7 1008.9 0.0
23/12:30pm WNW 1 6 - - - - 10 Cloudy - 16.6 1009.6 0.0
23/12:00pm NE 5 7 - - - - 10 Cloudy - 16.4 1009.9 0.0
23/11:30am NNE 6 9 - - - - 10 Cloudy - 16.0 1009.9 0.0
23/11:00am NE 8 10 - - - - 10 Cloudy - 15.9 1010.0 0.0
23/10:30am NE 9 11 - - - - 10 Cloudy - 15.4 1010.8 0.0
23/10:00am NNE 8 10 - - - - 10 Partly cloudy - 15.4 1011.1 0.0
23/09:30am NE 3 5 - - - - 10 Partly cloudy - 15.1 1011.4 0.0
23/09:28am NE 3 5 - - - - 10 Partly cloudy - 15.1 1011.4 0.0
23/09:05am ENE 5 7 - - - - 10 Partly cloudy - 14.7 1011.4 0.0
23/09:00am E 6 7 - - - - 10 Cloudy - 14.6 1011.3 0.0
23/08:46am SE 4 6 - - - - 10 Partly cloudy - 14.2 1011.4 0.0
23/08:30am SE 1 4 - - - - 10 Partly cloudy - 13.9 1011.6 0.0
23/08:00am SE 4 7 - - - - 10 Partly cloudy - 13.3 1011.3 0.0
23/07:30am E 3 4 - - - - 10 Partly cloudy - 12.6 1011.6 0.0
23/07:00am E 4 5 - - - - 10 Cloudy - 11.9 1011.6 0.0
23/06:30am ENE 6 7 - - - - 10 Cloudy - 10.9 1011.2 0.0
23/06:00am NE 7 8 - - - - 10 Cloudy - 10.0 1011.2 0.0
23/05:30am NE 6 7 - - - - 10 - - 9.2 1011.3 0.0
23/05:00am E 5 6 - - - - 10 - - 9.3 1011.6 0.0
23/04:30am ESE 3 5 - - - - 10 - - 8.8 1011.6 0.0
23/04:00am ESE 4 5 - - - - 10 - - 7.6 1011.5 0.0
23/03:30am ENE 3 5 - - - - 10 - - 7.9 1011.6 0.0
23/03:00am ENE 4 5 - - - - 10 Cloudy - 8.2 1012.0 0.0
23/02:30am ENE 6 6 - - - - 10 - - 9.1 1012.8 0.0
23/02:00am NE 8 9 - - - - 10 - - 9.9 1013.3 0.0
23/01:30am E 5 7 - - - - 10 - - 8.9 1013.8 0.0
23/01:00am ENE 4 5 - - - - 10 - - 9.0 1014.7 0.0
23/12:30am ENE 2 4 - - - - 10 - - 9.3 1014.8 0.0
23/12:00am ENE 3 4 - - - - 10 Mostly cloudy - 9.2 1015.2 0.0
 
Date/Time
EDT
Wind Sea
Height
m
Swell Vis
km
Cloud Weather Temp
°C
Press
MSL
hPa
Rain since
9am
mm
Dir  Spd
kts
Gust
kts
Height
m
Period
s
Dir
22/11:30pm ENE 2 5 - - - - 10 - - 8.5 1015.6 0.0
22/11:00pm NE 5 5 - - - - 10 - - 8.9 1015.8 0.0
22/10:30pm NE 5 6 - - - - 10 - - 10.0 1015.8 0.0
22/10:00pm NE 5 7 - - - - 10 Partly cloudy - 10.8 1015.7 0.0
22/09:30pm NE 4 6 - - - - 10 Cloudy - 11.7 1015.8 0.0
22/09:00pm NNE 2 4 - - - - 10 Mostly cloudy - 11.8 1015.5 0.0
22/08:30pm N 2 4 - - - - 10 Partly cloudy - 12.2 1015.2 0.0
22/08:00pm N 4 5 - - - - 10 Partly cloudy - 12.9 1015.2 0.0
22/07:30pm WSW 4 5 - - - - 10 Partly cloudy - 13.3 1015.4 0.0
22/07:00pm W 5 6 - - - - 10 Partly cloudy - 13.9 1015.0 0.0
22/06:30pm SW 7 8 - - - - 10 Partly cloudy - 14.7 1015.0 0.0
22/06:00pm WSW 6 8 - - - - 10 Cloudy - 15.4 1014.4 0.0
22/05:30pm SW 3 5 - - - - 10 - - 15.5 1014.5 0.0
22/05:00pm WSW 4 6 - - - - 10 Partly cloudy - 14.6 1014.7 0.0
22/04:30pm WSW 5 7 - - - - 10 Partly cloudy - 14.2 1015.2 0.0
22/04:00pm SW 6 8 - - - - 10 - - 14.3 1015.0 0.0
22/03:30pm WSW 7 9 - - - - 10 - - 14.1 1015.0 0.0
22/03:00pm WSW 7 8 - - - - 10 Mostly clear - 14.2 1015.2 0.0
22/02:30pm SW 8 9 - - - - 10 Partly cloudy - 14.4 1015.4 0.0
22/02:00pm SW 7 9 - - - - 10 Partly cloudy - 14.3 1015.6 0.0
22/01:30pm WSW 9 11 - - - - 10 Partly cloudy - 14.5 1015.7 0.0
22/01:00pm SW 8 10 - - - - 10 - - 14.6 1015.7 0.0
22/12:30pm SW 7 9 - - - - 10 - - 14.9 1015.7 0.0
22/12:00pm WSW 7 9 - - - - 10 Cloudy - 14.6 1016.2 0.0
22/11:30am SW 8 10 - - - - 10 Partly cloudy - 14.3 1016.5 0.0
22/11:00am WSW 8 10 - - - - 10 Partly cloudy - 14.3 1016.5 0.0
22/10:30am W 9 12 - - - - 10 Partly cloudy - 14.3 1016.6 0.0
22/10:00am WSW 9 11 - - - - 10 Partly cloudy - 14.3 1016.6 0.0
22/09:30am W 8 10 - - - - 10 Partly cloudy - 13.8 1016.5 0.0
22/09:00am WNW 8 9 - - - - 10 Partly cloudy - 14.3 1016.3 0.0
22/08:56am W 7 9 - - - - 10 Partly cloudy - 13.9 1016.4 0.0
22/08:30am W 7 7 - - - - 10 Partly cloudy - 13.7 1016.2 0.0
22/08:17am W 5 7 - - - - 10 Partly cloudy - 13.5 1016.0 0.0
22/08:00am NW 4 5 - - - - 10 Partly cloudy - 13.2 1015.9 0.0
22/07:30am NE 4 5 - - - - 10 Partly cloudy - 12.0 1015.9 0.0
22/07:00am CALM 0 0 - - - - 10 Cloudy - 10.7 1016.0 0.0
22/06:30am NNW 4 5 - - - - 10 Partly cloudy - 10.1 1015.7 0.0
22/06:00am NE 4 5 - - - - 10 Cloudy - 10.0 1015.5 0.0
22/05:30am CALM 0 0 - - - - 10 Partly cloudy - 9.6 1015.3 0.0
22/05:00am NE 5 6 - - - - 10 Cloudy - 9.7 1014.9 0.0
22/04:30am N 4 5 - - - - 10 Cloudy - 11.7 1014.8 0.0
22/04:00am NNW 5 7 - - - - 10 Cloudy - 11.7 1015.2 0.0
22/03:30am NNW 4 6 - - - - 10 Cloudy - 11.6 1015.0 0.0
22/03:00am NNW 5 6 - - - - 10 Mostly cloudy - 11.3 1015.3 0.0
22/02:30am NNW 5 6 - - - - 10 Partly cloudy - 9.7 1015.3 0.0
22/02:00am NNW 5 7 - - - - 10 Partly cloudy - 9.1 1015.6 0.0
22/01:44am N 5 6 - - - - 10 Partly cloudy - 10.7 1015.8 0.0
22/01:30am NNW 5 6 - - - - 10 Partly cloudy - 10.3 1015.9 0.0
22/01:00am NNW 5 6 - - - - 10 Partly cloudy - 10.4 1016.1 0.0
22/12:30am NNW 4 5 - - - - 10 Partly cloudy - 8.8 1016.1 0.0
22/12:01am NNW 5 6 - - - - 10 Partly cloudy - 11.1 1016.2 0.0
22/12:00am NNW 5 6 - - - - 10 Cloudy - 11.1 1016.2 0.0
 
Date/Time
EDT
Wind Sea
Height
m
Swell Vis
km
Cloud Weather Temp
°C
Press
MSL
hPa
Rain since
9am
mm
Dir  Spd
kts
Gust
kts
Height
m
Period
s
Dir
21/11:30pm NW 5 6 - - - - 10 Partly cloudy - 11.4 1016.3 0.0
21/11:00pm NNW 5 6 - - - - 10 Cloudy - 11.5 1016.3 0.0
21/10:30pm WNW 7 9 - - - - 10 Cloudy - 11.1 1016.4 0.0
21/10:00pm WNW 8 9 - - - - 10 Partly cloudy - 11.5 1016.4 0.0
21/09:49pm WNW 7 9 - - - - 10 Partly cloudy - 11.4 1016.4 0.0
21/09:30pm WNW 8 10 - - - - 10 Partly cloudy - 11.6 1016.3 0.0
21/09:00pm W 8 9 - - - - 10 Cloudy - 11.9 1016.1 0.0
21/08:30pm W 9 12 - - - - 10 - - 11.8 1015.9 0.0
21/08:00pm W 13 16 - - - - 10 Partly cloudy - 12.3 1015.6 0.0
21/07:30pm W 9 13 - - - - 10 Partly cloudy - 12.7 1015.3 0.0
21/07:00pm WNW 9 12 - - - - 10 Partly cloudy - 12.9 1014.9 0.0
21/06:30pm WNW 9 11 - - - - 10 Partly cloudy - 12.8 1014.7 0.0
21/06:00pm WSW 9 11 - - - - 10 Cloudy - 13.8 1014.5 0.0
21/05:30pm WSW 10 12 - - - - 10 - - 13.8 1014.6 0.0
21/05:00pm WSW 9 10 - - - - 10 - - 13.6 1014.5 0.0
21/04:30pm WSW 9 11 - - - - 10 Partly cloudy - 14.4 1014.5 0.0
21/04:00pm WSW 10 12 - - - - 10 Cloudy - 13.9 1014.7 0.0
21/03:30pm WSW 10 13 - - - - 10 Partly cloudy - 13.4 1015.0 0.0
21/03:00pm WSW 9 12 - - - - 10 Cloudy - 14.1 1015.0 0.0
21/02:30pm W 9 12 - - - - 10 Partly cloudy - 13.9 1015.2 0.0
21/02:00pm WSW 9 12 - - - - 10 Partly cloudy - 13.7 1015.4 0.0
21/01:30pm WSW 9 11 - - - - 10 Partly cloudy - 13.7 1015.3 0.0
21/01:00pm WSW 9 12 - - - - 10 Partly cloudy - 14.2 1015.4 0.0
21/12:30pm WSW 8 10 - - - - 10 Partly cloudy - 14.1 1015.5 0.0
21/12:00pm WSW 7 8 - - - - 10 Cloudy - 13.8 1015.8 0.0
21/11:30am SW 6 7 - - - - 10 Partly cloudy - 13.5 1016.0 0.0
21/11:00am SW 7 8 - - - - 10 Partly cloudy - 13.6 1016.2 0.0
21/10:30am SW 9 10 - - - - 10 Partly cloudy - 13.9 1016.3 0.0
21/10:00am SW 9 12 - - - - 10 - - 13.8 1016.3 0.0
21/09:30am SW 5 7 - - - - 10 - - 14.2 1015.9 0.0
21/09:00am WSW 5 6 - - - - 10 Cloudy - 13.4 1016.1 0.0
21/08:30am WSW 5 6 - - - - 10 Cloudy - 13.2 1016.2 0.0
21/08:00am SW 7 9 - - - - 10 Partly cloudy - 12.7 1016.0 0.0
21/07:30am W 6 7 - - - - 10 Cloudy - 11.9 1016.2 0.0
21/07:00am WNW 4 6 - - - - 10 Partly cloudy - 11.5 1016.1 0.0
21/06:30am WNW 5 6 - - - - 10 Partly cloudy - 11.2 1016.0 0.0
21/06:00am CALM 0 0 - - - - 10 Mostly cloudy - 10.2 1015.7 0.0
21/05:30am NE 3 5 - - - - 10 Cloudy - 9.6 1015.6 0.0
21/05:00am ENE 3 4 - - - - 10 Cloudy - 9.6 1015.7 0.0
21/04:30am ENE 4 4 - - - - 10 Partly cloudy - 9.7 1015.8 0.0
21/04:27am ENE 4 4 - - - - 10 Partly cloudy - 9.7 1015.8 0.0
21/04:09am ENE 4 6 - - - - 10 Partly cloudy - 9.4 1015.7 0.0
21/04:00am ENE 3 4 - - - - 10 Cloudy - 9.2 1015.7 0.0
21/03:30am ENE 6 7 - - - - 10 Cloudy - 8.8 1015.9 0.0
21/03:00am ENE 5 6 - - - - 10 Cloudy - 8.4 1016.1 0.0
21/02:30am NE 4 5 - - - - 10 Partly cloudy - 7.4 1016.3 0.0
21/02:00am NE 4 5 - - - - 10 - - 7.8 1016.5 0.0
21/01:30am NE 4 5 - - - - 10 - - 8.9 1016.8 0.0
21/01:00am CALM 0 3 - - - - 10 Partly cloudy - 11.1 1017.3 0.0
21/12:30am NNW 4 7 - - - - 10 Cloudy - 11.8 1017.5 0.0
21/12:00am NNW 6 8 - - - - 10 Cloudy - 11.6 1017.7 0.0
 
Date/Time
EDT
Wind Sea
Height
m
Swell Vis
km
Cloud Weather Temp
°C
Press
MSL
hPa
Rain since
9am
mm
Dir  Spd
kts
Gust
kts
Height
m
Period
s
Dir
20/11:30pm NNW 6 8 - - - - 10 Cloudy - 11.5 1017.8 0.0
20/11:00pm N 5 6 - - - - 10 Partly cloudy - 11.0 1017.9 0.0
20/10:30pm N 5 6 - - - - 10 Partly cloudy - 9.4 1018.1 0.0

Other formats

Comma delimited format used in spreadsheet applications
http://www.bom.gov.au/fwo/IDT60701/IDT60701.94980.axf

JavaScript Object Notation format (JSON) in row-major order
http://www.bom.gov.au/fwo/IDT60701/IDT60701.94980.json

Data quality

Most of these data are generated automatically and are frequently updated. Quality checks on data are not normally performed. It is possible for incorrect values to appear. Refer to information at About Latest Weather Observations and please check the disclaimer before using these data.